Wetterdaten: Woche 28.07.14 - 03.08.14 (KW31)
Datum Zeit Temperatur Luftfeuchte Luftdruck Niederschlag Windrichtung Sonnenschein Solar Wind
28.07.2014 00:00 15,8 C 97 % 1013,9 hPa 0,0 l/m N 0,00 h 0 W/m 1,6 km/h (1 Bft)
28.07.2014 01:00 15,7 C 97 % 1013,7 hPa 0,0 l/m S-SW 0,00 h 0 W/m 2,1 km/h (1 Bft)
28.07.2014 02:00 15,2 C 98 % 1013,1 hPa 0,0 l/m N 0,00 h 0 W/m 0,5 km/h (0 Bft)
28.07.2014 03:00 14,9 C 98 % 1012,6 hPa 0,0 l/m S-SW 0,00 h 0 W/m 0,4 km/h (0 Bft)
28.07.2014 04:00 14,4 C 99 % 1012,1 hPa 0,0 l/m N 0,00 h 0 W/m 0,5 km/h (0 Bft)
28.07.2014 05:00 14,0 C 99 % 1011,8 hPa 0,0 l/m N 0,00 h 0 W/m 0,0 km/h (0 Bft)
28.07.2014 06:00 13,6 C 99 % 1011,7 hPa 0,0 l/m N 0,00 h 16 W/m 0,3 km/h (0 Bft)
28.07.2014 07:00 14,2 C 100 % 1011,5 hPa 0,0 l/m N 0,08 h 97 W/m 0,0 km/h (0 Bft)
28.07.2014 08:00 15,8 C 99 % 1011,1 hPa 0,0 l/m N 0,00 h 149 W/m 0,8 km/h (0 Bft)
28.07.2014 09:00 18,2 C 93 % 1010,6 hPa 0,0 l/m S-SW 0,00 h 219 W/m 1,3 km/h (1 Bft)
28.07.2014 10:00 20,1 C 86 % 1010,1 hPa 0,0 l/m S-SO 0,42 h 462 W/m 4,4 km/h (1 Bft)
28.07.2014 11:00 21,8 C 79 % 1009,4 hPa 0,0 l/m S-SW 0,67 h 506 W/m 5,5 km/h (1 Bft)
28.07.2014 12:00 22,9 C 74 % 1008,7 hPa 0,0 l/m N 0,50 h 586 W/m 8,2 km/h (2 Bft)
28.07.2014 13:00 24,6 C 63 % 1008,1 hPa 0,0 l/m NO 0,58 h 589 W/m 12,4 km/h (3 Bft)
28.07.2014 14:00 24,6 C 62 % 1007,4 hPa 0,0 l/m NO 0,33 h 452 W/m 14,2 km/h (3 Bft)
28.07.2014 15:00 25,6 C 55 % 1006,6 hPa 0,0 l/m O-NO 0,92 h 729 W/m 13,8 km/h (3 Bft)
28.07.2014 16:00 26,1 C 56 % 1005,7 hPa 0,0 l/m O-SO 0,58 h 488 W/m 13,7 km/h (3 Bft)
28.07.2014 17:00 25,4 C 61 % 1005,3 hPa 0,0 l/m O-SO 0,42 h 296 W/m 14,5 km/h (3 Bft)
28.07.2014 18:00 25,0 C 61 % 1005,1 hPa 0,0 l/m O-SO 0,33 h 164 W/m 12,1 km/h (2 Bft)
28.07.2014 19:00 23,9 C 65 % 1004,6 hPa 0,0 l/m O 0,00 h 54 W/m 8,0 km/h (2 Bft)
28.07.2014 20:00 22,2 C 76 % 1004,9 hPa 0,0 l/m S-SW 0,00 h 7 W/m 8,6 km/h (2 Bft)
28.07.2014 21:00 19,7 C 83 % 1005,8 hPa 0,0 l/m SW 0,00 h 0 W/m 20,0 km/h (4 Bft)
28.07.2014 22:00 18,1 C 89 % 1006,3 hPa 0,2 l/m W 0,00 h 0 W/m 10,1 km/h (2 Bft)
28.07.2014 23:00 16,7 C 93 % 1006,7 hPa 0,0 l/m W 0,00 h 0 W/m 8,2 km/h (2 Bft)
29.07.2014 00:00 16,4 C 94 % 1006,9 hPa 0,0 l/m W-NW 0,00 h 0 W/m 6,8 km/h (2 Bft)
29.07.2014 01:00 16,2 C 94 % 1006,9 hPa 0,0 l/m W 0,00 h 0 W/m 9,3 km/h (2 Bft)
29.07.2014 02:00 16,1 C 94 % 1006,6 hPa 0,0 l/m W 0,00 h 0 W/m 8,2 km/h (2 Bft)
29.07.2014 03:00 15,9 C 94 % 1006,2 hPa 0,0 l/m W-SW 0,00 h 0 W/m 7,9 km/h (2 Bft)
29.07.2014 04:00 15,6 C 95 % 1005,9 hPa 0,0 l/m W-SW 0,00 h 0 W/m 5,6 km/h (1 Bft)
29.07.2014 05:00 15,4 C 96 % 1005,7 hPa 0,0 l/m W-SW 0,00 h 0 W/m 1,2 km/h (1 Bft)
29.07.2014 06:00 15,3 C 97 % 1005,6 hPa 0,4 l/m W-SW 0,00 h 5 W/m 2,8 km/h (1 Bft)
29.07.2014 07:00 15,1 C 98 % 1005,5 hPa 0,4 l/m SW 0,00 h 15 W/m 8,0 km/h (2 Bft)
29.07.2014 08:00 15,1 C 98 % 1005,7 hPa 1,2 l/m SW 0,00 h 42 W/m 6,9 km/h (2 Bft)
29.07.2014 09:00 15,4 C 99 % 1005,8 hPa 0,6 l/m S-SW 0,00 h 48 W/m 7,0 km/h (2 Bft)
29.07.2014 10:00 15,3 C 99 % 1005,7 hPa 0,2 l/m SW 0,00 h 69 W/m 9,9 km/h (2 Bft)
29.07.2014 11:00 16,2 C 99 % 1005,6 hPa 0,0 l/m W 0,00 h 126 W/m 6,4 km/h (2 Bft)
29.07.2014 12:00 16,3 C 97 % 1005,9 hPa 0,0 l/m SW 0,00 h 58 W/m 7,9 km/h (2 Bft)
29.07.2014 13:00 16,3 C 97 % 1005,9 hPa 0,4 l/m SW 0,00 h 102 W/m 5,7 km/h (1 Bft)
29.07.2014 14:00 16,5 C 97 % 1005,8 hPa 0,0 l/m SW 0,00 h 81 W/m 7,9 km/h (2 Bft)
29.07.2014 15:00 16,8 C 97 % 1005,5 hPa 0,0 l/m SW 0,00 h 137 W/m 7,6 km/h (2 Bft)
29.07.2014 16:00 18,0 C 93 % 1005,3 hPa 0,0 l/m SW 0,00 h 247 W/m 7,1 km/h (2 Bft)
29.07.2014 17:00 18,5 C 90 % 1005,4 hPa 0,0 l/m SW 0,00 h 116 W/m 7,2 km/h (2 Bft)
29.07.2014 18:00 18,0 C 92 % 1005,6 hPa 0,0 l/m SW 0,00 h 84 W/m 8,9 km/h (2 Bft)
29.07.2014 19:00 17,7 C 93 % 1005,9 hPa 0,0 l/m W-SW 0,00 h 31 W/m 5,6 km/h (1 Bft)
29.07.2014 20:00 17,3 C 94 % 1006,1 hPa 0,0 l/m N 0,00 h 8 W/m 3,9 km/h (1 Bft)
29.07.2014 21:00 16,9 C 95 % 1006,4 hPa 0,0 l/m W-SW 0,00 h 0 W/m 3,3 km/h (1 Bft)
29.07.2014 22:00 16,7 C 96 % 1006,8 hPa 0,0 l/m W-SW 0,00 h 0 W/m 5,2 km/h (1 Bft)
29.07.2014 23:00 16,5 C 97 % 1006,8 hPa 3,0 l/m W-SW 0,00 h 0 W/m 8,0 km/h (2 Bft)
30.07.2014 00:00 15,9 C 98 % 1006,6 hPa 0,0 l/m W-SW 0,00 h 0 W/m 4,4 km/h (1 Bft)
30.07.2014 01:00 15,9 C 98 % 1006,7 hPa 0,0 l/m W-SW 0,00 h 0 W/m 5,5 km/h (1 Bft)
30.07.2014 02:00 15,8 C 99 % 1006,8 hPa 0,2 l/m W-SW 0,00 h 0 W/m 8,6 km/h (2 Bft)
30.07.2014 03:00 15,6 C 99 % 1006,5 hPa 0,0 l/m W-SW 0,00 h 0 W/m 4,7 km/h (1 Bft)
30.07.2014 04:00 15,4 C 99 % 1006,2 hPa 1,6 l/m W-SW 0,00 h 0 W/m 7,6 km/h (2 Bft)
30.07.2014 05:00 15,1 C 99 % 1006,5 hPa 0,0 l/m W-SW 0,00 h 0 W/m 5,6 km/h (1 Bft)
30.07.2014 06:00 15,0 C 99 % 1006,4 hPa 0,0 l/m SW 0,00 h 14 W/m 6,7 km/h (2 Bft)
30.07.2014 07:00 15,3 C 99 % 1006,7 hPa 0,0 l/m SW 0,00 h 41 W/m 8,6 km/h (2 Bft)
30.07.2014 08:00 15,5 C 99 % 1007,0 hPa 0,0 l/m SW 0,00 h 61 W/m 9,5 km/h (2 Bft)
30.07.2014 09:00 16,1 C 98 % 1007,1 hPa 0,0 l/m W-SW 0,00 h 117 W/m 9,5 km/h (2 Bft)
30.07.2014 10:00 16,3 C 96 % 1007,3 hPa 0,0 l/m W-SW 0,00 h 94 W/m 8,6 km/h (2 Bft)
30.07.2014 11:00 16,8 C 96 % 1007,5 hPa 0,2 l/m W-SW 0,00 h 119 W/m 9,8 km/h (2 Bft)
30.07.2014 12:00 16,6 C 97 % 1007,8 hPa 0,0 l/m SW 0,00 h 79 W/m 10,1 km/h (2 Bft)
30.07.2014 13:00 17,7 C 96 % 1007,8 hPa 0,0 l/m SW 0,00 h 298 W/m 14,2 km/h (3 Bft)
30.07.2014 14:00 18,0 C 94 % 1007,9 hPa 1,0 l/m W-SW 0,00 h 115 W/m 12,4 km/h (3 Bft)
30.07.2014 15:00 17,9 C 97 % 1008,1 hPa 0,2 l/m SW 0,00 h 206 W/m 14,2 km/h (3 Bft)
30.07.2014 16:00 17,5 C 97 % 1008,3 hPa 10,2 l/m W-SW 0,00 h 49 W/m 10,3 km/h (2 Bft)
30.07.2014 17:00 17,2 C 99 % 1008,4 hPa 2,4 l/m S-SO 0,00 h 35 W/m 8,7 km/h (2 Bft)
30.07.2014 18:00 16,9 C 99 % 1008,7 hPa 0,8 l/m S 0,00 h 22 W/m 6,9 km/h (2 Bft)
30.07.2014 19:00 16,8 C 99 % 1009,0 hPa 1,4 l/m SW 0,00 h 15 W/m 4,5 km/h (1 Bft)
30.07.2014 20:00 16,8 C 100 % 1009,5 hPa 0,4 l/m SW 0,00 h 9 W/m 2,1 km/h (1 Bft)
30.07.2014 21:00 16,8 C 100 % 1010,1 hPa 1,2 l/m N-NW 0,00 h 0 W/m 5,8 km/h (1 Bft)
30.07.2014 22:00 16,6 C 100 % 1010,6 hPa 0,6 l/m N-NW 0,00 h 0 W/m 13,8 km/h (3 Bft)
30.07.2014 23:00 16,4 C 100 % 1011,0 hPa 0,4 l/m N-NW 0,00 h 0 W/m 12,2 km/h (2 Bft)
31.07.2014 00:00 16,3 C 99 % 1011,4 hPa 0,0 l/m N-NW 0,00 h 0 W/m 12,5 km/h (3 Bft)
31.07.2014 01:00 16,2 C 99 % 1011,5 hPa 0,0 l/m N 0,00 h 0 W/m 7,4 km/h (2 Bft)
31.07.2014 02:00 16,0 C 99 % 1011,7 hPa 0,0 l/m N 0,00 h 0 W/m 7,2 km/h (2 Bft)
31.07.2014 03:00 15,8 C 99 % 1012,0 hPa 0,0 l/m N-NW 0,00 h 0 W/m 9,1 km/h (2 Bft)
31.07.2014 04:00 15,7 C 99 % 1012,3 hPa 0,0 l/m N-NW 0,00 h 0 W/m 7,2 km/h (2 Bft)
31.07.2014 05:00 15,6 C 98 % 1012,7 hPa 0,0 l/m N-NW 0,00 h 0 W/m 6,6 km/h (2 Bft)
31.07.2014 06:00 15,3 C 98 % 1012,8 hPa 0,0 l/m N-NW 0,00 h 12 W/m 4,4 km/h (1 Bft)
31.07.2014 07:00 15,7 C 98 % 1013,3 hPa 0,0 l/m N 0,00 h 30 W/m 1,5 km/h (1 Bft)
31.07.2014 08:00 15,9 C 98 % 1013,5 hPa 0,0 l/m N-NW 0,00 h 48 W/m 2,9 km/h (1 Bft)
31.07.2014 09:00 16,4 C 97 % 1013,8 hPa 0,0 l/m N-NW 0,00 h 77 W/m 2,5 km/h (1 Bft)
31.07.2014 10:00 16,9 C 94 % 1014,0 hPa 0,0 l/m N-NW 0,00 h 108 W/m 3,1 km/h (1 Bft)
31.07.2014 11:00 17,8 C 90 % 1013,9 hPa 0,0 l/m N-NW 0,00 h 226 W/m 4,5 km/h (1 Bft)
31.07.2014 12:00 19,1 C 84 % 1013,6 hPa 0,0 l/m N-NW 0,25 h 368 W/m 5,3 km/h (1 Bft)
31.07.2014 13:00 21,3 C 75 % 1013,2 hPa 0,0 l/m SO 0,92 h 796 W/m 11,4 km/h (2 Bft)
31.07.2014 14:00 21,5 C 72 % 1012,8 hPa 0,0 l/m O-SO 0,42 h 573 W/m 11,1 km/h (2 Bft)
31.07.2014 15:00 22,4 C 66 % 1012,6 hPa 0,0 l/m O 0,67 h 624 W/m 11,1 km/h (2 Bft)
31.07.2014 16:00 22,9 C 63 % 1012,3 hPa 0,0 l/m O-SO 0,58 h 480 W/m 11,3 km/h (2 Bft)
31.07.2014 17:00 23,5 C 59 % 1011,8 hPa 0,0 l/m O-SO 0,92 h 527 W/m 13,3 km/h (3 Bft)
31.07.2014 18:00 23,1 C 60 % 1011,4 hPa 0,0 l/m O-NO 1,00 h 370 W/m 14,1 km/h (3 Bft)
31.07.2014 19:00 22,0 C 65 % 1011,3 hPa 0,0 l/m O 0,83 h 150 W/m 11,8 km/h (2 Bft)
31.07.2014 20:00 20,0 C 74 % 1011,2 hPa 0,0 l/m O-SO 0,00 h 18 W/m 4,1 km/h (1 Bft)
31.07.2014 21:00 17,2 C 88 % 1011,3 hPa 0,0 l/m N 0,00 h 0 W/m 0,3 km/h (0 Bft)
31.07.2014 22:00 16,0 C 93 % 1011,5 hPa 0,0 l/m N 0,00 h 0 W/m 0,7 km/h (0 Bft)
31.07.2014 23:00 15,2 C 95 % 1011,5 hPa 0,0 l/m N 0,00 h 0 W/m 1,5 km/h (1 Bft)
01.08.2014 00:00 14,8 C 96 % 1011,5 hPa 0,0 l/m O-SO 0,00 h 0 W/m 3,9 km/h (1 Bft)
01.08.2014 01:00 14,3 C 97 % 1011,2 hPa 0,0 l/m N 0,00 h 0 W/m 2,5 km/h (1 Bft)
01.08.2014 02:00 13,8 C 97 % 1011,0 hPa 0,0 l/m N 0,00 h 0 W/m 2,5 km/h (1 Bft)
01.08.2014 03:00 13,7 C 97 % 1010,7 hPa 0,0 l/m O-SO 0,00 h 0 W/m 4,3 km/h (1 Bft)
01.08.2014 04:00 13,4 C 97 % 1010,6 hPa 0,0 l/m N 0,00 h 0 W/m 2,9 km/h (1 Bft)
01.08.2014 05:00 13,0 C 97 % 1010,4 hPa 0,0 l/m O-SO 0,00 h 5 W/m 4,0 km/h (1 Bft)
01.08.2014 06:00 12,9 C 98 % 1010,2 hPa 0,0 l/m O-SO 0,08 h 26 W/m 3,9 km/h (1 Bft)
01.08.2014 07:00 14,2 C 96 % 1010,0 hPa 0,0 l/m O-NO 0,67 h 137 W/m 8,6 km/h (2 Bft)
01.08.2014 08:00 16,3 C 88 % 1009,9 hPa 0,0 l/m NO 0,92 h 273 W/m 9,1 km/h (2 Bft)
01.08.2014 09:00 18,1 C 80 % 1009,9 hPa 0,0 l/m NO 0,92 h 426 W/m 11,8 km/h (2 Bft)
01.08.2014 10:00 19,7 C 72 % 1009,6 hPa 0,0 l/m O-NO 0,42 h 325 W/m 16,1 km/h (3 Bft)
01.08.2014 11:00 19,8 C 73 % 1009,5 hPa 0,0 l/m O 0,00 h 217 W/m 14,8 km/h (3 Bft)
01.08.2014 12:00 20,2 C 73 % 1009,3 hPa 0,0 l/m O-NO 0,00 h 269 W/m 13,8 km/h (3 Bft)
01.08.2014 13:00 20,9 C 72 % 1009,1 hPa 0,0 l/m O 0,00 h 237 W/m 12,9 km/h (3 Bft)
01.08.2014 14:00 21,3 C 71 % 1008,6 hPa 0,0 l/m O 0,00 h 206 W/m 12,1 km/h (2 Bft)
01.08.2014 15:00 21,2 C 73 % 1008,3 hPa 0,0 l/m O-NO 0,00 h 187 W/m 10,6 km/h (2 Bft)
01.08.2014 16:00 22,0 C 72 % 1008,0 hPa 0,0 l/m NO 0,50 h 427 W/m 10,3 km/h (2 Bft)
01.08.2014 17:00 23,7 C 67 % 1007,7 hPa 0,0 l/m O 1,00 h 519 W/m 11,6 km/h (2 Bft)
01.08.2014 18:00 23,7 C 66 % 1007,5 hPa 0,0 l/m O-NO 0,83 h 307 W/m 9,0 km/h (2 Bft)
01.08.2014 19:00 22,9 C 68 % 1007,3 hPa 0,0 l/m O-NO 0,75 h 150 W/m 5,5 km/h (1 Bft)
01.08.2014 20:00 20,4 C 81 % 1007,3 hPa 0,0 l/m O-NO 0,00 h 16 W/m 2,1 km/h (1 Bft)
01.08.2014 21:00 18,5 C 89 % 1007,6 hPa 0,0 l/m N 0,00 h 0 W/m 1,2 km/h (1 Bft)
01.08.2014 22:00 17,7 C 91 % 1007,7 hPa 0,0 l/m N 0,00 h 0 W/m 0,3 km/h (0 Bft)
01.08.2014 23:00 17,0 C 93 % 1007,7 hPa 0,0 l/m O-NO 0,00 h 0 W/m 2,4 km/h (1 Bft)
02.08.2014 00:00 16,5 C 94 % 1007,5 hPa 0,0 l/m O-NO 0,00 h 0 W/m 2,4 km/h (1 Bft)
02.08.2014 01:00 16,1 C 95 % 1006,9 hPa 0,0 l/m O-NO 0,00 h 0 W/m 2,7 km/h (1 Bft)
02.08.2014 02:00 15,6 C 95 % 1006,6 hPa 0,0 l/m N 0,00 h 0 W/m 1,1 km/h (0 Bft)
02.08.2014 03:00 14,9 C 96 % 1006,7 hPa 0,0 l/m N 0,00 h 0 W/m 0,0 km/h (0 Bft)
02.08.2014 04:00 14,5 C 97 % 1006,6 hPa 0,0 l/m N 0,00 h 0 W/m 0,1 km/h (0 Bft)
02.08.2014 05:00 14,1 C 98 % 1006,4 hPa 0,0 l/m N 0,00 h 0 W/m 0,7 km/h (0 Bft)
02.08.2014 06:00 13,8 C 98 % 1006,5 hPa 0,0 l/m N 0,17 h 32 W/m 0,0 km/h (0 Bft)
02.08.2014 07:00 14,9 C 98 % 1006,8 hPa 0,0 l/m O 0,08 h 92 W/m 1,6 km/h (1 Bft)
02.08.2014 08:00 17,4 C 95 % 1006,8 hPa 0,0 l/m O 0,42 h 196 W/m 5,6 km/h (1 Bft)
02.08.2014 09:00 19,0 C 91 % 1006,9 hPa 0,0 l/m S-SW 0,25 h 280 W/m 8,2 km/h (2 Bft)
02.08.2014 10:00 20,5 C 87 % 1006,6 hPa 0,0 l/m S-SW 0,42 h 270 W/m 6,7 km/h (2 Bft)
02.08.2014 11:00 20,8 C 85 % 1006,7 hPa 0,0 l/m W-SW 0,08 h 224 W/m 9,5 km/h (2 Bft)
02.08.2014 12:00 21,5 C 81 % 1006,8 hPa 0,0 l/m W-SW 0,00 h 234 W/m 10,1 km/h (2 Bft)
02.08.2014 13:00 22,3 C 78 % 1006,6 hPa 0,0 l/m SW 0,00 h 328 W/m 9,0 km/h (2 Bft)
02.08.2014 14:00 22,4 C 77 % 1006,7 hPa 0,0 l/m W 0,00 h 196 W/m 7,8 km/h (2 Bft)
02.08.2014 15:00 23,3 C 75 % 1006,4 hPa 0,0 l/m S-SW 0,17 h 275 W/m 12,9 km/h (3 Bft)
02.08.2014 16:00 23,1 C 77 % 1006,1 hPa 0,0 l/m S-SW 0,67 h 380 W/m 21,4 km/h (4 Bft)
02.08.2014 17:00 24,1 C 72 % 1006,1 hPa 0,0 l/m SW 1,00 h 544 W/m 12,6 km/h (3 Bft)
02.08.2014 18:00 24,2 C 64 % 1005,6 hPa 0,0 l/m S-SW 1,00 h 354 W/m 8,9 km/h (2 Bft)
02.08.2014 19:00 22,9 C 65 % 1005,7 hPa 0,0 l/m SW 0,75 h 150 W/m 6,6 km/h (2 Bft)
02.08.2014 20:00 20,4 C 79 % 1006,2 hPa 0,0 l/m N 0,00 h 18 W/m 0,0 km/h (0 Bft)
02.08.2014 21:00 18,3 C 88 % 1006,5 hPa 0,0 l/m N 0,00 h 0 W/m 0,7 km/h (0 Bft)
02.08.2014 22:00 18,3 C 87 % 1007,4 hPa 0,0 l/m W-NW 0,00 h 0 W/m 9,0 km/h (2 Bft)
02.08.2014 23:00 15,9 C 90 % 1008,9 hPa 2,8 l/m N 0,00 h 0 W/m 7,1 km/h (2 Bft)
03.08.2014 00:00 14,9 C 96 % 1008,9 hPa 0,8 l/m O 0,00 h 0 W/m 2,3 km/h (1 Bft)
03.08.2014 01:00 15,0 C 97 % 1008,2 hPa 0,6 l/m S-SW 0,00 h 0 W/m 6,3 km/h (2 Bft)
03.08.2014 02:00 15,0 C 98 % 1008,2 hPa 0,2 l/m SW 0,00 h 0 W/m 8,6 km/h (2 Bft)
03.08.2014 03:00 15,0 C 98 % 1008,2 hPa 0,0 l/m W-SW 0,00 h 0 W/m 6,7 km/h (2 Bft)
03.08.2014 04:00 14,9 C 98 % 1008,4 hPa 0,0 l/m W-SW 0,00 h 0 W/m 2,1 km/h (1 Bft)
03.08.2014 05:00 15,0 C 98 % 1008,6 hPa 0,0 l/m N 0,00 h 0 W/m 0,8 km/h (0 Bft)
03.08.2014 06:00 15,1 C 98 % 1008,7 hPa 0,4 l/m N 0,00 h 6 W/m 1,2 km/h (1 Bft)
03.08.2014 07:00 15,0 C 98 % 1009,2 hPa 0,0 l/m N 0,00 h 19 W/m 1,5 km/h (1 Bft)
03.08.2014 08:00 15,5 C 99 % 1009,7 hPa 0,0 l/m S-SW 0,00 h 53 W/m 2,8 km/h (1 Bft)
03.08.2014 09:00 15,9 C 99 % 1010,1 hPa 0,2 l/m S-SW 0,00 h 55 W/m 1,7 km/h (1 Bft)
03.08.2014 10:00 16,8 C 98 % 1010,4 hPa 0,0 l/m S-SW 0,00 h 186 W/m 3,9 km/h (1 Bft)
03.08.2014 11:00 19,0 C 90 % 1010,2 hPa 0,0 l/m S-SW 0,67 h 560 W/m 4,9 km/h (1 Bft)
03.08.2014 12:00 20,0 C 83 % 1010,3 hPa 0,0 l/m O-NO 0,00 h 254 W/m 6,3 km/h (2 Bft)
03.08.2014 13:00 20,6 C 81 % 1010,1 hPa 0,0 l/m NO 0,33 h 516 W/m 8,0 km/h (2 Bft)
03.08.2014 14:00 22,6 C 72 % 1009,7 hPa 0,0 l/m W-NW 1,00 h 887 W/m 8,2 km/h (2 Bft)
03.08.2014 15:00 23,1 C 69 % 1009,3 hPa 0,0 l/m N 0,67 h 584 W/m 10,7 km/h (2 Bft)
03.08.2014 16:00 23,3 C 66 % 1009,1 hPa 0,0 l/m N-NW 0,58 h 498 W/m 11,1 km/h (2 Bft)
03.08.2014 17:00 21,1 C 77 % 1009,5 hPa 0,6 l/m N-NW 0,00 h 37 W/m 6,3 km/h (2 Bft)
03.08.2014 18:00 17,7 C 92 % 1010,7 hPa 1,8 l/m W-NW 0,00 h 12 W/m 11,4 km/h (2 Bft)
03.08.2014 19:00 16,8 C 96 % 1010,7 hPa 1,0 l/m N 0,00 h 44 W/m 1,3 km/h (1 Bft)
03.08.2014 20:00 17,0 C 97 % 1011,3 hPa 0,2 l/m SW 0,00 h 16 W/m 9,7 km/h (2 Bft)
03.08.2014 21:00 16,7 C 98 % 1011,9 hPa 0,0 l/m SW 0,00 h 0 W/m 8,6 km/h (2 Bft)
03.08.2014 22:00 16,7 C 98 % 1012,5 hPa 0,0 l/m S-SW 0,00 h 0 W/m 9,3 km/h (2 Bft)
03.08.2014 23:00 16,4 C 98 % 1012,5 hPa 0,0 l/m S-SW 0,00 h 0 W/m 6,4 km/h (2 Bft)
Min-Datum _ 01.08.14 28.07.14 28.07.14 - - - - 28.07.14
_ Min-Zeit 06:10 15:50 19:30 - - - - 00:00
Minimum _ 12,8 C 52 % 1004,4 hPa - - - - 0,0 km/h (0 Bft)
Max-Datum _ 28.07.14 28.07.14 31.07.14 30.07.14 - 28.07.14 31.07.14 02.08.14
_ Max-Zeit 16:30 06:40 10:30 16:40 - 07:30 14:10 22:50
Maximum _ 26,9 C 100 % 1014,1 hPa 10,2 l/m - 0,08 h 1027 W/m 43,5 km/h
W-NW (6 Bft)
Durchschnitt _ 17,9 C 89 % 1008,7 hPa #35,6 l/m SW #24:45 h 214 W/m 6,8 km/h (2 Bft)